sensor_id;sensor_type;location;lat;lon;timestamp;temperature;humidity
7317;DHT22;3699;51.462;6.696;2023-11-21T00:02:07;7.80;99.90
7317;DHT22;3699;51.462;6.696;2023-11-21T00:04:33;8.00;99.90
7317;DHT22;3699;51.462;6.696;2023-11-21T00:07:02;8.10;99.90
7317;DHT22;3699;51.462;6.696;2023-11-21T00:09:28;8.20;99.90
7317;DHT22;3699;51.462;6.696;2023-11-21T00:11:55;8.20;99.90
7317;DHT22;3699;51.462;6.696;2023-11-21T00:14:22;8.30;99.90
7317;DHT22;3699;51.462;6.696;2023-11-21T00:16:49;8.30;99.90
7317;DHT22;3699;51.462;6.696;2023-11-21T00:19:15;8.50;99.90
7317;DHT22;3699;51.462;6.696;2023-11-21T00:21:42;8.50;99.90
7317;DHT22;3699;51.462;6.696;2023-11-21T00:24:12;8.40;99.90
7317;DHT22;3699;51.462;6.696;2023-11-21T00:26:39;8.50;99.90
7317;DHT22;3699;51.462;6.696;2023-11-21T00:29:06;8.40;99.90
7317;DHT22;3699;51.462;6.696;2023-11-21T00:31:33;8.80;99.90
7317;DHT22;3699;51.462;6.696;2023-11-21T00:34:02;8.60;99.90
7317;DHT22;3699;51.462;6.696;2023-11-21T00:36:29;8.60;99.90
7317;DHT22;3699;51.462;6.696;2023-11-21T00:38:55;8.60;99.90
7317;DHT22;3699;51.462;6.696;2023-11-21T00:41:23;8.70;99.90
7317;DHT22;3699;51.462;6.696;2023-11-21T00:43:53;8.80;99.90
7317;DHT22;3699;51.462;6.696;2023-11-21T00:46:19;8.70;99.90
7317;DHT22;3699;51.462;6.696;2023-11-21T00:48:46;8.70;99.90
7317;DHT22;3699;51.462;6.696;2023-11-21T00:51:13;8.80;99.90
7317;DHT22;3699;51.462;6.696;2023-11-21T00:53:40;8.60;99.90
7317;DHT22;3699;51.462;6.696;2023-11-21T00:56:07;8.80;99.90
7317;DHT22;3699;51.462;6.696;2023-11-21T00:58:35;8.80;99.90
7317;DHT22;3699;51.462;6.696;2023-11-21T01:01:02;8.80;99.90
7317;DHT22;3699;51.462;6.696;2023-11-21T01:03:29;8.80;99.90
7317;DHT22;3699;51.462;6.696;2023-11-21T01:05:56;8.90;99.90
7317;DHT22;3699;51.462;6.696;2023-11-21T01:08:22;9.00;99.90
7317;DHT22;3699;51.462;6.696;2023-11-21T01:13:17;8.90;99.90
7317;DHT22;3699;51.462;6.696;2023-11-21T01:15:45;8.90;99.90
7317;DHT22;3699;51.462;6.696;2023-11-21T01:18:12;9.00;99.90
7317;DHT22;3699;51.462;6.696;2023-11-21T01:20:38;8.90;99.90
7317;DHT22;3699;51.462;6.696;2023-11-21T01:23:05;8.90;99.90
7317;DHT22;3699;51.462;6.696;2023-11-21T01:25:32;9.00;99.90
7317;DHT22;3699;51.462;6.696;2023-11-21T01:27:59;9.20;99.90
7317;DHT22;3699;51.462;6.696;2023-11-21T01:30:25;9.00;99.90
7317;DHT22;3699;51.462;6.696;2023-11-21T01:32:53;9.20;99.90
7317;DHT22;3699;51.462;6.696;2023-11-21T01:35:20;9.10;99.90
7317;DHT22;3699;51.462;6.696;2023-11-21T01:37:47;9.10;99.90
7317;DHT22;3699;51.462;6.696;2023-11-21T01:40:14;9.10;99.90
7317;DHT22;3699;51.462;6.696;2023-11-21T01:42:42;9.10;99.90
7317;DHT22;3699;51.462;6.696;2023-11-21T01:45:09;9.20;99.90
7317;DHT22;3699;51.462;6.696;2023-11-21T01:47:38;9.10;99.90
7317;DHT22;3699;51.462;6.696;2023-11-21T01:50:08;9.10;99.90
7317;DHT22;3699;51.462;6.696;2023-11-21T01:52:38;9.30;99.90
7317;DHT22;3699;51.462;6.696;2023-11-21T01:55:07;9.20;99.90
7317;DHT22;3699;51.462;6.696;2023-11-21T01:57:35;9.20;99.90
7317;DHT22;3699;51.462;6.696;2023-11-21T02:00:04;9.00;99.90
7317;DHT22;3699;51.462;6.696;2023-11-21T02:02:41;9.20;99.90
7317;DHT22;3699;51.462;6.696;2023-11-21T02:05:09;9.40;99.90
7317;DHT22;3699;51.462;6.696;2023-11-21T02:07:38;9.20;99.90
7317;DHT22;3699;51.462;6.696;2023-11-21T02:10:05;9.10;99.90
7317;DHT22;3699;51.462;6.696;2023-11-21T02:12:32;9.20;99.90
7317;DHT22;3699;51.462;6.696;2023-11-21T02:15:00;9.20;99.90
7317;DHT22;3699;51.462;6.696;2023-11-21T02:17:28;9.30;99.90
7317;DHT22;3699;51.462;6.696;2023-11-21T02:19:55;9.30;99.90
7317;DHT22;3699;51.462;6.696;2023-11-21T02:22:23;9.10;99.90
7317;DHT22;3699;51.462;6.696;2023-11-21T02:24:53;9.30;99.90
7317;DHT22;3699;51.462;6.696;2023-11-21T02:27:20;9.30;99.90
7317;DHT22;3699;51.462;6.696;2023-11-21T02:29:49;9.30;99.90
7317;DHT22;3699;51.462;6.696;2023-11-21T02:32:14;9.50;99.90
7317;DHT22;3699;51.462;6.696;2023-11-21T02:34:44;9.30;99.90
7317;DHT22;3699;51.462;6.696;2023-11-21T02:37:11;9.30;99.90
7317;DHT22;3699;51.462;6.696;2023-11-21T02:39:38;9.30;99.90
7317;DHT22;3699;51.462;6.696;2023-11-21T02:42:06;9.50;99.90
7317;DHT22;3699;51.462;6.696;2023-11-21T02:44:33;9.40;99.90
7317;DHT22;3699;51.462;6.696;2023-11-21T02:47:00;9.30;99.90
7317;DHT22;3699;51.462;6.696;2023-11-21T02:49:27;9.30;99.90
7317;DHT22;3699;51.462;6.696;2023-11-21T02:51:53;9.30;99.90
7317;DHT22;3699;51.462;6.696;2023-11-21T02:54:21;9.50;99.90
7317;DHT22;3699;51.462;6.696;2023-11-21T02:56:48;9.40;99.90
7317;DHT22;3699;51.462;6.696;2023-11-21T02:59:17;9.40;99.90
7317;DHT22;3699;51.462;6.696;2023-11-21T03:01:44;9.60;99.90
7317;DHT22;3699;51.462;6.696;2023-11-21T03:04:11;9.40;99.90
7317;DHT22;3699;51.462;6.696;2023-11-21T03:06:43;9.60;99.90
7317;DHT22;3699;51.462;6.696;2023-11-21T03:09:10;9.60;99.90
7317;DHT22;3699;51.462;6.696;2023-11-21T03:11:38;9.40;99.90
7317;DHT22;3699;51.462;6.696;2023-11-21T03:14:05;9.50;99.90
7317;DHT22;3699;51.462;6.696;2023-11-21T03:16:33;9.60;99.90
7317;DHT22;3699;51.462;6.696;2023-11-21T03:19:00;9.50;99.90
7317;DHT22;3699;51.462;6.696;2023-11-21T03:21:27;9.40;99.90
7317;DHT22;3699;51.462;6.696;2023-11-21T03:23:54;9.50;99.90
7317;DHT22;3699;51.462;6.696;2023-11-21T03:26:21;9.40;99.90
7317;DHT22;3699;51.462;6.696;2023-11-21T03:28:48;9.40;99.90
7317;DHT22;3699;51.462;6.696;2023-11-21T03:31:15;9.40;99.90
7317;DHT22;3699;51.462;6.696;2023-11-21T03:33:45;9.40;99.90
7317;DHT22;3699;51.462;6.696;2023-11-21T03:36:13;9.40;99.90
7317;DHT22;3699;51.462;6.696;2023-11-21T03:38:40;9.40;99.90
7317;DHT22;3699;51.462;6.696;2023-11-21T03:41:07;9.40;99.90
7317;DHT22;3699;51.462;6.696;2023-11-21T03:43:35;9.40;99.90
7317;DHT22;3699;51.462;6.696;2023-11-21T03:46:02;9.30;99.90
7317;DHT22;3699;51.462;6.696;2023-11-21T03:48:29;9.40;99.90
7317;DHT22;3699;51.462;6.696;2023-11-21T03:50:57;9.60;99.90
7317;DHT22;3699;51.462;6.696;2023-11-21T03:53:24;9.70;99.90
7317;DHT22;3699;51.462;6.696;2023-11-21T03:55:50;9.60;99.90
7317;DHT22;3699;51.462;6.696;2023-11-21T03:58:17;9.30;99.90
7317;DHT22;3699;51.462;6.696;2023-11-21T04:00:44;9.30;99.90
7317;DHT22;3699;51.462;6.696;2023-11-21T04:03:11;9.20;99.90
7317;DHT22;3699;51.462;6.696;2023-11-21T04:05:39;9.40;99.90
7317;DHT22;3699;51.462;6.696;2023-11-21T04:08:07;10.10;99.90
7317;DHT22;3699;51.462;6.696;2023-11-21T04:10:34;9.60;99.90
7317;DHT22;3699;51.462;6.696;2023-11-21T04:13:00;9.30;99.90
7317;DHT22;3699;51.462;6.696;2023-11-21T04:15:27;9.30;99.90
7317;DHT22;3699;51.462;6.696;2023-11-21T04:17:54;9.40;99.90
7317;DHT22;3699;51.462;6.696;2023-11-21T04:20:22;9.30;99.90
7317;DHT22;3699;51.462;6.696;2023-11-21T04:22:49;9.30;99.90
7317;DHT22;3699;51.462;6.696;2023-11-21T04:25:17;9.20;99.90
7317;DHT22;3699;51.462;6.696;2023-11-21T04:27:45;9.30;99.90
7317;DHT22;3699;51.462;6.696;2023-11-21T04:30:12;9.30;99.90
7317;DHT22;3699;51.462;6.696;2023-11-21T04:32:39;9.30;99.90
7317;DHT22;3699;51.462;6.696;2023-11-21T04:35:08;9.50;99.90
7317;DHT22;3699;51.462;6.696;2023-11-21T04:37:35;9.30;99.90
7317;DHT22;3699;51.462;6.696;2023-11-21T04:40:02;9.50;99.90
7317;DHT22;3699;51.462;6.696;2023-11-21T04:42:34;9.20;99.90
7317;DHT22;3699;51.462;6.696;2023-11-21T04:45:00;9.20;99.90
7317;DHT22;3699;51.462;6.696;2023-11-21T04:47:30;9.60;99.90
7317;DHT22;3699;51.462;6.696;2023-11-21T04:49:57;9.50;99.90
7317;DHT22;3699;51.462;6.696;2023-11-21T04:52:24;9.10;99.90
7317;DHT22;3699;51.462;6.696;2023-11-21T04:54:50;9.40;99.90
7317;DHT22;3699;51.462;6.696;2023-11-21T04:57:19;9.40;99.90
7317;DHT22;3699;51.462;6.696;2023-11-21T04:59:49;9.00;99.90
7317;DHT22;3699;51.462;6.696;2023-11-21T05:02:16;9.30;99.90
7317;DHT22;3699;51.462;6.696;2023-11-21T05:04:44;8.90;99.90
7317;DHT22;3699;51.462;6.696;2023-11-21T05:07:11;9.00;99.90
7317;DHT22;3699;51.462;6.696;2023-11-21T05:09:41;8.80;99.90
7317;DHT22;3699;51.462;6.696;2023-11-21T05:12:09;9.20;99.90
7317;DHT22;3699;51.462;6.696;2023-11-21T05:14:36;9.30;99.90
7317;DHT22;3699;51.462;6.696;2023-11-21T05:17:04;8.70;99.90
7317;DHT22;3699;51.462;6.696;2023-11-21T05:19:31;9.20;99.90
7317;DHT22;3699;51.462;6.696;2023-11-21T05:21:58;9.30;99.90
7317;DHT22;3699;51.462;6.696;2023-11-21T05:24:26;8.80;99.90
7317;DHT22;3699;51.462;6.696;2023-11-21T05:26:54;8.70;99.90
7317;DHT22;3699;51.462;6.696;2023-11-21T05:29:21;8.90;99.90
7317;DHT22;3699;51.462;6.696;2023-11-21T05:31:48;8.90;99.90
7317;DHT22;3699;51.462;6.696;2023-11-21T05:34:16;9.00;99.90
7317;DHT22;3699;51.462;6.696;2023-11-21T05:36:43;9.00;99.90
7317;DHT22;3699;51.462;6.696;2023-11-21T05:39:11;9.20;99.90
7317;DHT22;3699;51.462;6.696;2023-11-21T05:41:38;9.10;99.90
7317;DHT22;3699;51.462;6.696;2023-11-21T05:44:04;9.00;99.90
7317;DHT22;3699;51.462;6.696;2023-11-21T05:46:31;9.20;99.90
7317;DHT22;3699;51.462;6.696;2023-11-21T05:48:58;9.30;99.90
7317;DHT22;3699;51.462;6.696;2023-11-21T05:51:26;9.40;99.90
7317;DHT22;3699;51.462;6.696;2023-11-21T05:53:53;9.30;99.90
7317;DHT22;3699;51.462;6.696;2023-11-21T05:56:20;9.30;99.90
7317;DHT22;3699;51.462;6.696;2023-11-21T05:58:47;9.20;99.90
7317;DHT22;3699;51.462;6.696;2023-11-21T06:01:14;9.20;99.90
7317;DHT22;3699;51.462;6.696;2023-11-21T06:03:40;9.30;99.90
7317;DHT22;3699;51.462;6.696;2023-11-21T06:06:08;9.40;99.90
7317;DHT22;3699;51.462;6.696;2023-11-21T06:08:36;9.80;99.90
7317;DHT22;3699;51.462;6.696;2023-11-21T06:11:03;9.50;99.90
7317;DHT22;3699;51.462;6.696;2023-11-21T06:13:30;9.40;99.90
7317;DHT22;3699;51.462;6.696;2023-11-21T06:15:57;9.40;99.90
7317;DHT22;3699;51.462;6.696;2023-11-21T06:18:23;9.70;99.90
7317;DHT22;3699;51.462;6.696;2023-11-21T06:20:50;9.50;99.90
7317;DHT22;3699;51.462;6.696;2023-11-21T06:23:18;9.70;99.90
7317;DHT22;3699;51.462;6.696;2023-11-21T06:25:46;9.50;99.90
7317;DHT22;3699;51.462;6.696;2023-11-21T06:28:14;9.50;99.90
7317;DHT22;3699;51.462;6.696;2023-11-21T06:30:43;9.50;99.90
7317;DHT22;3699;51.462;6.696;2023-11-21T06:33:10;9.50;99.90
7317;DHT22;3699;51.462;6.696;2023-11-21T06:35:37;9.50;99.90
7317;DHT22;3699;51.462;6.696;2023-11-21T06:38:05;9.90;99.90
7317;DHT22;3699;51.462;6.696;2023-11-21T06:40:32;9.90;99.90
7317;DHT22;3699;51.462;6.696;2023-11-21T06:43:01;9.60;99.90
7317;DHT22;3699;51.462;6.696;2023-11-21T06:45:28;9.60;99.90
7317;DHT22;3699;51.462;6.696;2023-11-21T06:47:54;9.60;99.90
7317;DHT22;3699;51.462;6.696;2023-11-21T06:50:21;9.60;99.90
7317;DHT22;3699;51.462;6.696;2023-11-21T06:52:48;9.90;99.90
7317;DHT22;3699;51.462;6.696;2023-11-21T06:55:15;9.60;99.90
7317;DHT22;3699;51.462;6.696;2023-11-21T06:57:42;9.80;99.90
7317;DHT22;3699;51.462;6.696;2023-11-21T07:00:12;9.80;99.90
7317;DHT22;3699;51.462;6.696;2023-11-21T07:02:39;9.60;99.90
7317;DHT22;3699;51.462;6.696;2023-11-21T07:05:07;9.60;99.90
7317;DHT22;3699;51.462;6.696;2023-11-21T07:07:33;9.70;99.90
7317;DHT22;3699;51.462;6.696;2023-11-21T07:10:01;9.70;99.90
7317;DHT22;3699;51.462;6.696;2023-11-21T07:12:28;9.90;99.90
7317;DHT22;3699;51.462;6.696;2023-11-21T07:14:55;9.90;99.90
7317;DHT22;3699;51.462;6.696;2023-11-21T07:17:23;9.80;99.90
7317;DHT22;3699;51.462;6.696;2023-11-21T07:19:50;9.60;99.90
7317;DHT22;3699;51.462;6.696;2023-11-21T07:22:17;9.60;99.90
7317;DHT22;3699;51.462;6.696;2023-11-21T07:24:48;9.70;99.90
7317;DHT22;3699;51.462;6.696;2023-11-21T07:29:42;9.60;99.90
7317;DHT22;3699;51.462;6.696;2023-11-21T07:32:09;9.80;99.90
7317;DHT22;3699;51.462;6.696;2023-11-21T07:34:37;9.90;99.90
7317;DHT22;3699;51.462;6.696;2023-11-21T07:37:03;9.80;99.90
7317;DHT22;3699;51.462;6.696;2023-11-21T07:44:24;10.00;99.90
7317;DHT22;3699;51.462;6.696;2023-11-21T07:46:51;10.00;99.90
7317;DHT22;3699;51.462;6.696;2023-11-21T07:49:22;10.20;99.90
7317;DHT22;3699;51.462;6.696;2023-11-21T07:51:50;9.90;99.90
7317;DHT22;3699;51.462;6.696;2023-11-21T07:54:17;9.90;99.90
7317;DHT22;3699;51.462;6.696;2023-11-21T07:59:11;10.10;99.90
7317;DHT22;3699;51.462;6.696;2023-11-21T08:04:08;10.40;99.90
7317;DHT22;3699;51.462;6.696;2023-11-21T08:06:35;10.30;99.90
7317;DHT22;3699;51.462;6.696;2023-11-21T08:09:03;10.80;99.90
7317;DHT22;3699;51.462;6.696;2023-11-21T08:11:30;10.20;99.90
7317;DHT22;3699;51.462;6.696;2023-11-21T08:13:58;10.40;99.90
7317;DHT22;3699;51.462;6.696;2023-11-21T08:16:25;10.30;99.90
7317;DHT22;3699;51.462;6.696;2023-11-21T08:18:52;10.30;99.90
7317;DHT22;3699;51.462;6.696;2023-11-21T08:21:19;10.20;99.90
7317;DHT22;3699;51.462;6.696;2023-11-21T08:23:46;10.70;99.90
7317;DHT22;3699;51.462;6.696;2023-11-21T08:26:20;10.20;99.90
7317;DHT22;3699;51.462;6.696;2023-11-21T08:31:14;10.80;99.90
7317;DHT22;3699;51.462;6.696;2023-11-21T08:33:41;10.40;99.90
7317;DHT22;3699;51.462;6.696;2023-11-21T08:36:09;10.60;99.90
7317;DHT22;3699;51.462;6.696;2023-11-21T08:38:36;10.60;99.90
7317;DHT22;3699;51.462;6.696;2023-11-21T08:41:04;10.60;99.90
7317;DHT22;3699;51.462;6.696;2023-11-21T08:43:34;10.40;99.90
7317;DHT22;3699;51.462;6.696;2023-11-21T08:46:01;10.40;99.90
7317;DHT22;3699;51.462;6.696;2023-11-21T08:48:28;10.60;99.90
7317;DHT22;3699;51.462;6.696;2023-11-21T08:50:55;10.50;99.90
7317;DHT22;3699;51.462;6.696;2023-11-21T08:53:22;10.50;99.90
7317;DHT22;3699;51.462;6.696;2023-11-21T08:55:51;10.50;99.90
7317;DHT22;3699;51.462;6.696;2023-11-21T08:58:19;10.50;99.90
7317;DHT22;3699;51.462;6.696;2023-11-21T09:00:47;10.50;99.90
7317;DHT22;3699;51.462;6.696;2023-11-21T09:03:14;10.50;99.90
7317;DHT22;3699;51.462;6.696;2023-11-21T09:05:40;11.00;99.90
7317;DHT22;3699;51.462;6.696;2023-11-21T09:08:07;10.60;99.90
7317;DHT22;3699;51.462;6.696;2023-11-21T09:10:34;10.50;99.90
7317;DHT22;3699;51.462;6.696;2023-11-21T09:13:02;10.50;99.90
7317;DHT22;3699;51.462;6.696;2023-11-21T09:15:29;10.50;99.90
7317;DHT22;3699;51.462;6.696;2023-11-21T09:17:57;10.50;99.90
7317;DHT22;3699;51.462;6.696;2023-11-21T09:20:23;10.50;99.90
7317;DHT22;3699;51.462;6.696;2023-11-21T09:22:50;10.60;99.90
7317;DHT22;3699;51.462;6.696;2023-11-21T09:25:17;10.60;99.90
7317;DHT22;3699;51.462;6.696;2023-11-21T09:27:45;10.70;99.90
7317;DHT22;3699;51.462;6.696;2023-11-21T09:30:12;10.70;99.90
7317;DHT22;3699;51.462;6.696;2023-11-21T09:32:40;10.80;99.90
7317;DHT22;3699;51.462;6.696;2023-11-21T09:35:12;10.80;99.90
7317;DHT22;3699;51.462;6.696;2023-11-21T09:37:39;10.90;99.90
7317;DHT22;3699;51.462;6.696;2023-11-21T09:40:10;10.90;99.90
7317;DHT22;3699;51.462;6.696;2023-11-21T09:42:40;10.90;99.90
7317;DHT22;3699;51.462;6.696;2023-11-21T09:45:15;10.90;99.90
7317;DHT22;3699;51.462;6.696;2023-11-21T09:47:43;10.90;99.90
7317;DHT22;3699;51.462;6.696;2023-11-21T09:50:16;10.90;99.90
7317;DHT22;3699;51.462;6.696;2023-11-21T09:52:50;10.90;99.90
7317;DHT22;3699;51.462;6.696;2023-11-21T09:55:19;11.00;99.90
7317;DHT22;3699;51.462;6.696;2023-11-21T09:57:48;11.20;99.90
7317;DHT22;3699;51.462;6.696;2023-11-21T10:00:16;10.90;99.90
7317;DHT22;3699;51.462;6.696;2023-11-21T10:02:45;11.00;99.90
7317;DHT22;3699;51.462;6.696;2023-11-21T10:05:15;11.10;99.90
7317;DHT22;3699;51.462;6.696;2023-11-21T10:07:43;11.20;99.90
7317;DHT22;3699;51.462;6.696;2023-11-21T10:10:13;11.10;99.90
7317;DHT22;3699;51.462;6.696;2023-11-21T10:12:42;11.10;99.90
7317;DHT22;3699;51.462;6.696;2023-11-21T10:15:11;11.20;99.90
7317;DHT22;3699;51.462;6.696;2023-11-21T10:17:43;11.20;99.90
7317;DHT22;3699;51.462;6.696;2023-11-21T10:20:11;11.30;99.90
7317;DHT22;3699;51.462;6.696;2023-11-21T10:22:40;11.30;99.90
7317;DHT22;3699;51.462;6.696;2023-11-21T10:25:08;11.40;99.90
7317;DHT22;3699;51.462;6.696;2023-11-21T10:27:35;11.40;99.90
7317;DHT22;3699;51.462;6.696;2023-11-21T10:30:02;11.50;99.90
7317;DHT22;3699;51.462;6.696;2023-11-21T10:32:29;11.50;99.90
7317;DHT22;3699;51.462;6.696;2023-11-21T10:34:58;11.60;99.90
7317;DHT22;3699;51.462;6.696;2023-11-21T10:37:28;11.70;99.90
7317;DHT22;3699;51.462;6.696;2023-11-21T10:39:58;11.70;99.90
7317;DHT22;3699;51.462;6.696;2023-11-21T10:42:25;11.80;99.90
7317;DHT22;3699;51.462;6.696;2023-11-21T10:44:52;11.90;99.90
7317;DHT22;3699;51.462;6.696;2023-11-21T10:47:19;13.20;99.90
7317;DHT22;3699;51.462;6.696;2023-11-21T10:49:48;12.20;99.90
7317;DHT22;3699;51.462;6.696;2023-11-21T10:52:15;12.40;99.90
7317;DHT22;3699;51.462;6.696;2023-11-21T10:54:43;12.40;99.90
7317;DHT22;3699;51.462;6.696;2023-11-21T10:57:14;12.50;99.90
7317;DHT22;3699;51.462;6.696;2023-11-21T10:59:45;12.50;99.90
7317;DHT22;3699;51.462;6.696;2023-11-21T11:02:21;12.60;99.90
7317;DHT22;3699;51.462;6.696;2023-11-21T11:04:52;12.50;99.90
7317;DHT22;3699;51.462;6.696;2023-11-21T11:07:21;12.50;99.90
7317;DHT22;3699;51.462;6.696;2023-11-21T11:09:52;12.50;99.90
7317;DHT22;3699;51.462;6.696;2023-11-21T11:12:20;12.50;99.90
7317;DHT22;3699;51.462;6.696;2023-11-21T11:14:48;12.30;99.90
7317;DHT22;3699;51.462;6.696;2023-11-21T11:17:15;12.80;99.90
7317;DHT22;3699;51.462;6.696;2023-11-21T11:19:45;11.70;99.90
7317;DHT22;3699;51.462;6.696;2023-11-21T11:22:20;12.00;99.90
7317;DHT22;3699;51.462;6.696;2023-11-21T11:25:07;11.90;99.90
7317;DHT22;3699;51.462;6.696;2023-11-21T11:27:49;11.80;99.90
7317;DHT22;3699;51.462;6.696;2023-11-21T11:30:30;11.80;99.90
7317;DHT22;3699;51.462;6.696;2023-11-21T11:33:07;11.80;99.90
7317;DHT22;3699;51.462;6.696;2023-11-21T11:35:42;11.80;99.90
7317;DHT22;3699;51.462;6.696;2023-11-21T11:38:13;11.80;99.90
7317;DHT22;3699;51.462;6.696;2023-11-21T11:40:40;11.80;99.90
7317;DHT22;3699;51.462;6.696;2023-11-21T11:43:09;11.80;99.90
7317;DHT22;3699;51.462;6.696;2023-11-21T11:45:36;11.80;99.90
7317;DHT22;3699;51.462;6.696;2023-11-21T11:48:07;11.70;99.90
7317;DHT22;3699;51.462;6.696;2023-11-21T11:50:34;11.70;99.90
7317;DHT22;3699;51.462;6.696;2023-11-21T11:53:12;11.60;99.90
7317;DHT22;3699;51.462;6.696;2023-11-21T11:55:39;11.50;99.90
7317;DHT22;3699;51.462;6.696;2023-11-21T11:58:08;11.50;99.90
7317;DHT22;3699;51.462;6.696;2023-11-21T12:00:35;12.00;99.90
7317;DHT22;3699;51.462;6.696;2023-11-21T12:03:06;11.40;99.90
7317;DHT22;3699;51.462;6.696;2023-11-21T12:05:34;11.40;99.90
7317;DHT22;3699;51.462;6.696;2023-11-21T12:08:05;11.50;99.90
7317;DHT22;3699;51.462;6.696;2023-11-21T12:10:34;11.50;99.90
7317;DHT22;3699;51.462;6.696;2023-11-21T12:13:02;11.50;99.90
7317;DHT22;3699;51.462;6.696;2023-11-21T12:15:32;11.50;99.90
7317;DHT22;3699;51.462;6.696;2023-11-21T12:18:00;11.60;99.90
7317;DHT22;3699;51.462;6.696;2023-11-21T12:20:28;11.70;99.90
7317;DHT22;3699;51.462;6.696;2023-11-21T12:22:57;11.80;99.90
7317;DHT22;3699;51.462;6.696;2023-11-21T12:25:25;11.80;99.90
7317;DHT22;3699;51.462;6.696;2023-11-21T12:27:55;12.00;99.90
7317;DHT22;3699;51.462;6.696;2023-11-21T12:30:23;12.00;99.90
7317;DHT22;3699;51.462;6.696;2023-11-21T12:32:55;12.10;99.90
7317;DHT22;3699;51.462;6.696;2023-11-21T12:35:24;12.10;99.90
7317;DHT22;3699;51.462;6.696;2023-11-21T12:37:52;12.20;99.90
7317;DHT22;3699;51.462;6.696;2023-11-21T12:40:20;11.90;99.90
7317;DHT22;3699;51.462;6.696;2023-11-21T12:42:51;12.10;99.90
7317;DHT22;3699;51.462;6.696;2023-11-21T12:45:21;12.10;99.90
7317;DHT22;3699;51.462;6.696;2023-11-21T12:47:49;11.90;99.90
7317;DHT22;3699;51.462;6.696;2023-11-21T12:50:20;11.90;99.90
7317;DHT22;3699;51.462;6.696;2023-11-21T12:52:49;11.90;99.90
7317;DHT22;3699;51.462;6.696;2023-11-21T12:55:17;11.90;99.90
7317;DHT22;3699;51.462;6.696;2023-11-21T12:57:48;11.70;99.90
7317;DHT22;3699;51.462;6.696;2023-11-21T13:00:18;11.70;99.90
7317;DHT22;3699;51.462;6.696;2023-11-21T13:02:54;11.60;99.90
7317;DHT22;3699;51.462;6.696;2023-11-21T13:05:32;11.60;99.90
7317;DHT22;3699;51.462;6.696;2023-11-21T13:08:01;11.50;99.90
7317;DHT22;3699;51.462;6.696;2023-11-21T13:10:29;11.50;99.90
7317;DHT22;3699;51.462;6.696;2023-11-21T13:12:57;11.50;99.90
7317;DHT22;3699;51.462;6.696;2023-11-21T13:15:26;11.40;99.90
7317;DHT22;3699;51.462;6.696;2023-11-21T13:17:53;11.40;99.90
7317;DHT22;3699;51.462;6.696;2023-11-21T13:20:21;11.40;99.90
7317;DHT22;3699;51.462;6.696;2023-11-21T13:22:52;11.40;99.90
7317;DHT22;3699;51.462;6.696;2023-11-21T13:25:22;11.40;99.90
7317;DHT22;3699;51.462;6.696;2023-11-21T13:27:50;11.40;99.90
7317;DHT22;3699;51.462;6.696;2023-11-21T13:30:17;11.30;99.90
7317;DHT22;3699;51.462;6.696;2023-11-21T13:32:48;11.30;99.90
7317;DHT22;3699;51.462;6.696;2023-11-21T13:35:16;11.30;99.90
7317;DHT22;3699;51.462;6.696;2023-11-21T13:37:48;11.20;99.90
7317;DHT22;3699;51.462;6.696;2023-11-21T13:40:20;11.20;99.90
7317;DHT22;3699;51.462;6.696;2023-11-21T13:42:49;11.30;99.90
7317;DHT22;3699;51.462;6.696;2023-11-21T13:45:19;11.20;99.90
7317;DHT22;3699;51.462;6.696;2023-11-21T13:47:47;11.20;99.90
7317;DHT22;3699;51.462;6.696;2023-11-21T13:50:16;11.20;99.90
7317;DHT22;3699;51.462;6.696;2023-11-21T13:52:48;11.60;99.90
7317;DHT22;3699;51.462;6.696;2023-11-21T13:55:16;11.20;99.90
7317;DHT22;3699;51.462;6.696;2023-11-21T13:57:45;11.20;99.90
7317;DHT22;3699;51.462;6.696;2023-11-21T14:00:15;11.20;99.90
7317;DHT22;3699;51.462;6.696;2023-11-21T14:03:07;11.20;99.90
7317;DHT22;3699;51.462;6.696;2023-11-21T14:05:43;11.20;99.90
7317;DHT22;3699;51.462;6.696;2023-11-21T14:08:10;11.10;99.90
7317;DHT22;3699;51.462;6.696;2023-11-21T14:10:42;11.10;99.90
7317;DHT22;3699;51.462;6.696;2023-11-21T14:13:10;11.10;99.90
7317;DHT22;3699;51.462;6.696;2023-11-21T14:15:39;11.00;99.90
7317;DHT22;3699;51.462;6.696;2023-11-21T14:18:09;11.10;99.90
7317;DHT22;3699;51.462;6.696;2023-11-21T14:20:38;11.10;99.90
7317;DHT22;3699;51.462;6.696;2023-11-21T14:23:05;11.10;99.90
7317;DHT22;3699;51.462;6.696;2023-11-21T14:25:32;11.00;99.90
7317;DHT22;3699;51.462;6.696;2023-11-21T14:27:59;11.00;99.90
7317;DHT22;3699;51.462;6.696;2023-11-21T14:30:30;11.00;99.90
7317;DHT22;3699;51.462;6.696;2023-11-21T14:32:58;11.00;99.90
7317;DHT22;3699;51.462;6.696;2023-11-21T14:35:26;11.00;99.90
7317;DHT22;3699;51.462;6.696;2023-11-21T14:37:53;10.90;99.90
7317;DHT22;3699;51.462;6.696;2023-11-21T14:40:21;10.90;99.90
7317;DHT22;3699;51.462;6.696;2023-11-21T14:42:50;11.00;99.90
7317;DHT22;3699;51.462;6.696;2023-11-21T14:45:18;10.90;99.90
7317;DHT22;3699;51.462;6.696;2023-11-21T14:47:47;10.90;99.90
7317;DHT22;3699;51.462;6.696;2023-11-21T14:50:22;10.90;99.90
7317;DHT22;3699;51.462;6.696;2023-11-21T14:53:13;10.90;99.90
7317;DHT22;3699;51.462;6.696;2023-11-21T14:55:40;10.90;99.90
7317;DHT22;3699;51.462;6.696;2023-11-21T14:58:20;10.90;99.90
7317;DHT22;3699;51.462;6.696;2023-11-21T15:00:53;10.90;99.90
7317;DHT22;3699;51.462;6.696;2023-11-21T15:03:25;10.90;99.90
7317;DHT22;3699;51.462;6.696;2023-11-21T15:06:09;10.80;99.90
7317;DHT22;3699;51.462;6.696;2023-11-21T15:08:49;10.80;99.90
7317;DHT22;3699;51.462;6.696;2023-11-21T15:11:19;10.80;99.90
7317;DHT22;3699;51.462;6.696;2023-11-21T15:13:50;10.90;99.90
7317;DHT22;3699;51.462;6.696;2023-11-21T15:16:18;10.80;99.90
7317;DHT22;3699;51.462;6.696;2023-11-21T15:18:46;10.80;99.90
7317;DHT22;3699;51.462;6.696;2023-11-21T15:21:13;10.80;99.90
7317;DHT22;3699;51.462;6.696;2023-11-21T15:23:39;10.70;99.90
7317;DHT22;3699;51.462;6.696;2023-11-21T15:26:07;10.60;99.90
7317;DHT22;3699;51.462;6.696;2023-11-21T15:28:35;10.60;99.90
7317;DHT22;3699;51.462;6.696;2023-11-21T15:31:02;10.60;99.90
7317;DHT22;3699;51.462;6.696;2023-11-21T15:33:29;10.50;99.90
7317;DHT22;3699;51.462;6.696;2023-11-21T15:35:57;10.50;99.90
7317;DHT22;3699;51.462;6.696;2023-11-21T15:38:24;10.40;99.90
7317;DHT22;3699;51.462;6.696;2023-11-21T15:40:51;10.40;99.90
7317;DHT22;3699;51.462;6.696;2023-11-21T15:43:18;10.30;99.90
7317;DHT22;3699;51.462;6.696;2023-11-21T15:45:44;10.30;99.90
7317;DHT22;3699;51.462;6.696;2023-11-21T15:48:11;10.30;99.90
7317;DHT22;3699;51.462;6.696;2023-11-21T15:50:38;10.30;99.90
7317;DHT22;3699;51.462;6.696;2023-11-21T15:53:06;10.30;99.90
7317;DHT22;3699;51.462;6.696;2023-11-21T15:55:32;10.30;99.90
7317;DHT22;3699;51.462;6.696;2023-11-21T15:58:01;10.30;99.90
7317;DHT22;3699;51.462;6.696;2023-11-21T16:00:30;10.50;99.90
7317;DHT22;3699;51.462;6.696;2023-11-21T16:02:57;10.30;99.90
7317;DHT22;3699;51.462;6.696;2023-11-21T16:05:23;10.30;99.90
7317;DHT22;3699;51.462;6.696;2023-11-21T16:07:51;10.30;99.90
7317;DHT22;3699;51.462;6.696;2023-11-21T16:10:20;10.30;99.90
7317;DHT22;3699;51.462;6.696;2023-11-21T16:12:46;10.30;99.90
7317;DHT22;3699;51.462;6.696;2023-11-21T16:15:13;10.30;99.90
7317;DHT22;3699;51.462;6.696;2023-11-21T16:17:40;10.30;99.90
7317;DHT22;3699;51.462;6.696;2023-11-21T16:20:08;10.20;99.90
7317;DHT22;3699;51.462;6.696;2023-11-21T16:22:36;10.20;99.90
7317;DHT22;3699;51.462;6.696;2023-11-21T16:25:03;10.20;99.90
7317;DHT22;3699;51.462;6.696;2023-11-21T16:27:33;10.20;99.90
7317;DHT22;3699;51.462;6.696;2023-11-21T16:30:00;10.20;99.90
7317;DHT22;3699;51.462;6.696;2023-11-21T16:32:29;10.20;99.90
7317;DHT22;3699;51.462;6.696;2023-11-21T16:34:57;10.00;99.90